Time;durP1;ratioP1;P1;durP2;ratioP2;P2;SDS_P1;SDS_P2;PMS_P1;PMS_P2;Temp;Humidity;BMP_temperature;BMP_pressure;BME280_temperature;BME280_humidity;BME280_pressure;Samples;Min_cycle;Max_cycle;Signal;HPM_P1;HPM_P2
2023/06/15 00:00:30;;;;;;;;;;;;;;;19.73;47.14;101307.81;4186136;28;20019;-63
2023/06/15 00:02:34;;;;;;;;;;;;;;;19.74;47.06;101315.81;4185668;28;20062;-63
2023/06/15 00:04:36;;;;;;;;;;;;;;;19.75;47.13;101314.75;4218135;28;20027;-65
2023/06/15 00:06:38;;;;;;;;;;;;;;;19.73;47.09;101313.28;4185491;28;20055;-61
2023/06/15 00:08:40;;;;;;;;;;;;;;;19.71;47.41;101312.69;4185601;28;20091;-63
2023/06/15 00:10:42;;;;;;;;;;;;;;;19.68;47.44;101316.69;4185371;28;20023;-63
2023/06/15 00:12:44;;;;;;;;;;;;;;;19.66;47.39;101321.56;4185246;28;20349;-63
2023/06/15 00:14:46;;;;;;;;;;;;;;;19.63;47.56;101311.88;4184849;28;20020;-63
2023/06/15 00:16:52;;;;;;;;;;;;;;;19.62;47.60;101310.22;4186182;28;20040;-63
2023/06/15 00:18:57;;;;;;;;;;;;;;;19.59;47.75;101316.16;4185962;28;20850;-62
2023/06/15 00:21:00;;;;;;;;;;;;;;;19.55;47.66;101317.66;4185681;28;20024;-63
2023/06/15 00:23:03;;;;;;;;;;;;;;;19.51;47.97;101312.84;4185226;28;20015;-62
2023/06/15 00:25:06;;;;;;;;;;;;;;;19.49;48.26;101314.97;4184306;28;20019;-62
2023/06/15 00:27:09;;;;;;;;;;;;;;;19.44;48.16;101310.16;4186720;28;20011;-60
2023/06/15 00:29:11;;;;;;;;;;;;;;;19.37;48.15;101307.47;4184823;28;20019;-63
2023/06/15 00:31:14;;;;;;;;;;;;;;;19.35;48.54;101316.97;4186035;28;20027;-60
2023/06/15 00:33:16;;;;;;;;;;;;;;;19.34;48.43;101310.66;4185072;28;20074;-59
2023/06/15 00:35:19;;;;;;;;;;;;;;;19.35;48.64;101309.56;4201171;28;20019;-60
2023/06/15 00:37:22;;;;;;;;;;;;;;;19.33;48.36;101311.72;4184684;28;20692;-62
2023/06/15 00:39:24;;;;;;;;;;;;;;;19.30;48.46;101311.31;4184995;28;20019;-64
2023/06/15 00:41:26;;;;;;;;;;;;;;;19.27;48.41;101304.38;4182212;28;20016;-63
2023/06/15 00:43:29;;;;;;;;;;;;;;;19.23;48.62;101303.13;4185088;28;20031;-63
2023/06/15 00:45:31;;;;;;;;;;;;;;;19.20;48.79;101311.78;4185593;28;20019;-63
2023/06/15 00:47:33;;;;;;;;;;;;;;;19.19;48.67;101307.38;4184670;28;20370;-63
2023/06/15 00:49:36;;;;;;;;;;;;;;;19.18;48.73;101308.44;4218031;28;19998;-61
2023/06/15 00:51:39;;;;;;;;;;;;;;;19.16;48.59;101321.50;4187616;28;20446;-62
2023/06/15 00:53:41;;;;;;;;;;;;;;;19.15;48.82;101311.59;4181714;28;20481;-61
2023/06/15 00:55:43;;;;;;;;;;;;;;;19.16;48.85;101318.78;4204585;28;20564;-63
2023/06/15 00:57:49;;;;;;;;;;;;;;;19.16;49.08;101305.09;4188864;28;20020;-62
2023/06/15 00:59:51;;;;;;;;;;;;;;;19.17;48.87;101306.75;4188165;28;20015;-62
2023/06/15 01:01:54;;;;;;;;;;;;;;;19.14;48.97;101312.66;4188620;28;20019;-62
2023/06/15 01:03:57;;;;;;;;;;;;;;;19.11;48.94;101313.97;4188068;28;20016;-62
2023/06/15 01:05:59;;;;;;;;;;;;;;;19.08;48.84;101314.41;4188237;28;19932;-61
2023/06/15 01:08:04;;;;;;;;;;;;;;;19.06;49.04;101314.63;4187689;28;20027;-63
2023/06/15 01:10:07;;;;;;;;;;;;;;;19.04;49.27;101319.47;4188323;28;19996;-63
2023/06/15 01:12:11;;;;;;;;;;;;;;;19.01;49.10;101311.72;4188299;28;20321;-61
2023/06/15 01:14:13;;;;;;;;;;;;;;;19.00;49.39;101309.19;4188291;28;20043;-58
2023/06/15 01:16:17;;;;;;;;;;;;;;;18.96;49.33;101310.69;4187906;28;20015;-61
2023/06/15 01:18:20;;;;;;;;;;;;;;;18.92;49.58;101310.28;4188441;28;20035;-60
2023/06/15 01:20:25;;;;;;;;;;;;;;;18.89;49.57;101306.06;4187473;28;20023;-62
2023/06/15 01:22:35;;;;;;;;;;;;;;;18.87;49.86;101315.56;4188229;28;20012;-61
2023/06/15 01:24:38;;;;;;;;;;;;;;;18.87;49.78;101310.06;4187870;28;20446;-62
2023/06/15 01:26:41;;;;;;;;;;;;;;;18.84;49.94;101310.47;4185576;28;20478;-64
2023/06/15 01:28:45;;;;;;;;;;;;;;;18.80;49.89;101307.34;4188252;28;20026;-59
2023/06/15 01:30:47;;;;;;;;;;;;;;;18.79;49.98;101308.41;4187951;28;20461;-63
2023/06/15 01:32:49;;;;;;;;;;;;;;;18.76;49.95;101305.25;4188302;28;20023;-62
2023/06/15 01:34:51;;;;;;;;;;;;;;;18.71;50.11;101303.19;4186071;28;20442;-61
2023/06/15 01:36:53;;;;;;;;;;;;;;;18.68;50.28;101312.69;4187740;28;20011;-62
2023/06/15 01:38:59;;;;;;;;;;;;;;;18.65;50.31;101310.38;4219850;28;20018;-62
2023/06/15 01:41:01;;;;;;;;;;;;;;;18.62;50.54;101308.06;4187077;28;20016;-62
2023/06/15 01:43:08;;;;;;;;;;;;;;;18.59;50.46;101308.50;4186470;28;21816;-63
2023/06/15 01:45:10;;;;;;;;;;;;;;;18.55;50.64;101302.59;4186982;28;20011;-60
2023/06/15 01:47:12;;;;;;;;;;;;;;;18.54;50.52;101308.28;4183214;28;19928;-62
2023/06/15 01:49:15;;;;;;;;;;;;;;;18.51;50.71;101311.47;4202271;28;19999;-64
2023/06/15 01:51:17;;;;;;;;;;;;;;;18.48;50.92;101310.00;4187085;28;20016;-61
2023/06/15 01:53:19;;;;;;;;;;;;;;;18.47;50.73;101302.84;4187354;28;20120;-62
2023/06/15 01:55:22;;;;;;;;;;;;;;;18.44;51.04;101302.47;4187112;28;20015;-62
2023/06/15 01:57:24;;;;;;;;;;;;;;;18.41;51.08;101291.94;4185844;28;20016;-63
2023/06/15 01:59:27;;;;;;;;;;;;;;;18.42;51.12;101301.84;4185324;28;20030;-62
2023/06/15 02:01:30;;;;;;;;;;;;;;;18.36;51.41;101301.63;4181338;28;20024;-61
2023/06/15 02:03:32;;;;;;;;;;;;;;;18.34;51.33;101300.19;4187585;28;20015;-62
2023/06/15 02:05:39;;;;;;;;;;;;;;;18.32;51.54;101294.94;4184315;28;20028;-62
2023/06/15 02:07:41;;;;;;;;;;;;;;;18.32;51.30;101300.41;4187380;28;19968;-59
2023/06/15 02:09:43;;;;;;;;;;;;;;;18.31;51.37;101298.72;4185302;28;20016;-62
2023/06/15 02:11:45;;;;;;;;;;;;;;;18.28;51.48;101298.31;4186816;28;20027;-60
2023/06/15 02:13:47;;;;;;;;;;;;;;;18.25;51.58;101296.81;4202422;28;20011;-61
2023/06/15 02:15:50;;;;;;;;;;;;;;;18.23;51.74;101290.75;4186856;28;20040;-62
2023/06/15 02:18:00;;;;;;;;;;;;;;;18.22;51.99;101289.06;4202984;28;20015;-63
2023/06/15 02:20:04;;;;;;;;;;;;;;;18.22;51.75;101291.78;4187364;28;20036;-59
2023/06/15 02:22:06;;;;;;;;;;;;;;;18.17;52.08;101286.13;4186183;28;20008;-63
2023/06/15 02:24:08;;;;;;;;;;;;;;;18.14;51.94;101287.38;4186822;28;20008;-63
2023/06/15 02:26:11;;;;;;;;;;;;;;;18.13;51.82;101285.69;4186689;28;20028;-61
2023/06/15 02:28:13;;;;;;;;;;;;;;;18.11;52.23;101285.09;4183886;28;20011;-62
2023/06/15 02:30:15;;;;;;;;;;;;;;;18.09;52.05;101292.66;4186177;28;20027;-62
2023/06/15 02:32:26;;;;;;;;;;;;;;;18.08;52.26;101292.88;4186998;28;20023;-62
2023/06/15 02:34:28;;;;;;;;;;;;;;;18.05;52.46;101294.13;4186111;28;20462;-62
2023/06/15 02:36:30;;;;;;;;;;;;;;;18.03;52.26;101292.69;4186518;28;20619;-63
2023/06/15 02:38:32;;;;;;;;;;;;;;;17.99;52.52;101292.25;4185704;28;20027;-63
2023/06/15 02:40:34;;;;;;;;;;;;;;;17.95;52.64;101289.13;4186139;28;20470;-63
2023/06/15 02:42:37;;;;;;;;;;;;;;;17.94;52.77;101289.31;4185682;28;20039;-62
2023/06/15 02:44:41;;;;;;;;;;;;;;;17.92;52.66;101286.81;4186178;28;20019;-62
2023/06/15 02:46:43;;;;;;;;;;;;;;;17.92;52.87;101288.72;4187285;28;20020;-63
2023/06/15 02:48:51;;;;;;;;;;;;;;;17.92;53.01;101295.00;4186014;28;19928;-62
2023/06/15 02:50:55;;;;;;;;;;;;;;;17.92;52.65;101289.53;4186565;28;20007;-63
2023/06/15 02:52:59;;;;;;;;;;;;;;;17.93;53.08;101287.63;4185931;28;20028;-63
2023/06/15 02:55:01;;;;;;;;;;;;;;;17.93;52.63;101299.44;4200240;28;20023;-63
2023/06/15 02:57:06;;;;;;;;;;;;;;;17.92;52.73;101297.72;4185140;28;20660;-62
2023/06/15 02:59:10;;;;;;;;;;;;;;;17.90;52.86;101297.13;4201644;28;20007;-61
2023/06/15 03:01:37;;;;;;;;;;;;;;;17.86;52.79;101298.53;4218587;28;20362;-63
2023/06/15 03:03:40;;;;;;;;;;;;;;;17.86;53.07;101297.72;4186199;28;20024;-62
2023/06/15 03:05:45;;;;;;;;;;;;;;;17.86;52.92;101298.53;4183409;28;20368;-64
2023/06/15 03:07:48;;;;;;;;;;;;;;;17.87;52.82;101297.50;4201643;28;20027;-64
2023/06/15 03:10:11;;;;;;;;;;;;;;;17.89;52.86;101297.34;4217901;28;20031;-63
2023/06/15 03:12:17;;;;;;;;;;;;;;;17.90;52.88;101299.00;4184238;28;20111;-63
2023/06/15 03:14:20;;;;;;;;;;;;;;;17.90;52.56;101296.25;4185223;28;20024;-64
2023/06/15 03:16:25;;;;;;;;;;;;;;;17.92;52.38;101302.38;4186242;28;20018;-60
2023/06/15 03:18:28;;;;;;;;;;;;;;;17.90;52.56;101293.53;4186547;28;20031;-61
2023/06/15 03:20:32;;;;;;;;;;;;;;;17.86;52.50;101295.81;4199843;28;20015;-61
2023/06/15 03:22:36;;;;;;;;;;;;;;;17.87;52.69;101292.03;4193061;28;20011;-61
2023/06/15 03:24:39;;;;;;;;;;;;;;;17.85;52.63;101296.84;4184958;28;20047;-62
2023/06/15 03:26:42;;;;;;;;;;;;;;;17.85;52.79;101294.13;4200823;28;20412;-62
2023/06/15 03:28:45;;;;;;;;;;;;;;;17.84;52.72;101301.50;4217589;28;20031;-64
2023/06/15 03:30:52;;;;;;;;;;;;;;;17.83;52.50;101298.97;4184982;28;21496;-63
2023/06/15 03:32:54;;;;;;;;;;;;;;;17.83;52.80;101299.81;4184910;28;20608;-63
2023/06/15 03:34:58;;;;;;;;;;;;;;;17.81;52.88;101295.63;4200336;28;20382;-64
2023/06/15 03:37:02;;;;;;;;;;;;;;;17.79;52.77;101301.28;4201487;28;20024;-64
2023/06/15 03:39:06;;;;;;;;;;;;;;;17.80;52.95;101302.94;4200553;28;20015;-64
2023/06/15 03:41:09;;;;;;;;;;;;;;;17.83;53.01;101307.16;4182689;28;20613;-63
2023/06/15 03:43:11;;;;;;;;;;;;;;;17.82;52.91;101300.00;4217516;28;20446;-62
2023/06/15 03:45:17;;;;;;;;;;;;;;;17.80;53.09;101305.69;4168771;28;20044;-63
2023/06/15 03:47:20;;;;;;;;;;;;;;;17.80;53.18;101299.41;4201013;28;20363;-62
2023/06/15 03:49:22;;;;;;;;;;;;;;;17.77;53.16;101308.88;4200406;28;20023;-63
2023/06/15 03:51:26;;;;;;;;;;;;;;;17.78;53.40;101306.97;4200442;28;20035;-64
2023/06/15 03:53:28;;;;;;;;;;;;;;;17.79;53.08;101304.03;4185472;28;20031;-63
2023/06/15 03:55:32;;;;;;;;;;;;;;;17.77;53.48;101299.81;4184046;28;20027;-63
2023/06/15 03:57:34;;;;;;;;;;;;;;;17.78;53.48;101304.25;4184084;28;20027;-63
2023/06/15 03:59:36;;;;;;;;;;;;;;;17.77;53.58;101308.00;4200591;28;20517;-64
2023/06/15 04:01:40;;;;;;;;;;;;;;;17.77;53.40;101305.28;4185955;28;20019;-62
2023/06/15 04:03:42;;;;;;;;;;;;;;;17.76;53.62;101303.63;4185624;28;20015;-62
2023/06/15 04:05:45;;;;;;;;;;;;;;;17.77;53.71;101305.28;4185582;28;20016;-61
2023/06/15 04:07:47;;;;;;;;;;;;;;;17.76;53.50;101307.19;4218093;28;20027;-62
2023/06/15 04:09:49;;;;;;;;;;;;;;;17.76;53.72;101304.44;4184369;28;20007;-63
2023/06/15 04:11:53;;;;;;;;;;;;;;;17.77;54.04;101305.28;4182200;28;19933;-60
2023/06/15 04:13:55;;;;;;;;;;;;;;;17.76;53.98;101306.34;4184164;28;20015;-61
2023/06/15 04:15:58;;;;;;;;;;;;;;;17.74;53.92;101308.44;4215297;28;20103;-61
2023/06/15 04:18:00;;;;;;;;;;;;;;;17.74;54.07;101312.03;4184230;28;20586;-60
2023/06/15 04:20:05;;;;;;;;;;;;;;;17.76;54.18;101311.81;4167529;28;20016;-62
2023/06/15 04:22:08;;;;;;;;;;;;;;;17.78;54.31;101312.44;4167203;28;20016;-62
2023/06/15 04:24:10;;;;;;;;;;;;;;;17.77;54.03;101325.25;4184049;28;20011;-62
2023/06/15 04:26:13;;;;;;;;;;;;;;;17.76;54.19;101307.19;4220466;28;20023;-62
2023/06/15 04:28:17;;;;;;;;;;;;;;;17.76;54.07;101311.81;4171682;28;20023;-61
2023/06/15 04:30:24;;;;;;;;;;;;;;;17.79;54.25;101308.63;4188844;28;20007;-62
2023/06/15 04:32:30;;;;;;;;;;;;;;;17.79;54.41;101309.50;4188178;28;20749;-62
2023/06/15 04:34:32;;;;;;;;;;;;;;;17.80;54.46;101311.16;4187809;28;20027;-62
2023/06/15 04:36:38;;;;;;;;;;;;;;;17.80;54.27;101311.16;4219724;27;20019;-64
2023/06/15 04:38:46;;;;;;;;;;;;;;;17.79;54.50;101305.91;4187331;28;20023;-62
2023/06/15 04:40:49;;;;;;;;;;;;;;;17.79;54.65;101309.50;4188428;28;20047;-61
2023/06/15 04:42:57;;;;;;;;;;;;;;;17.79;54.60;101309.50;4220586;28;20493;-62
2023/06/15 04:45:01;;;;;;;;;;;;;;;17.82;54.99;101313.69;4187679;28;20011;-63
2023/06/15 04:47:04;;;;;;;;;;;;;;;17.84;54.74;101315.16;4187976;28;20103;-63
2023/06/15 04:49:06;;;;;;;;;;;;;;;17.87;54.71;101319.38;4202773;28;20453;-62
2023/06/15 04:51:08;;;;;;;;;;;;;;;17.89;54.83;101316.47;4187347;28;20011;-58
2023/06/15 04:53:10;;;;;;;;;;;;;;;17.89;54.62;101324.66;4201723;28;20342;-62
2023/06/15 04:55:13;;;;;;;;;;;;;;;17.90;54.83;101312.66;4202061;28;19975;-62
2023/06/15 04:57:15;;;;;;;;;;;;;;;17.92;55.02;101316.88;4202905;28;20011;-62
2023/06/15 04:59:17;;;;;;;;;;;;;;;17.93;54.68;101315.81;4219771;28;20031;-62
2023/06/15 05:01:20;;;;;;;;;;;;;;;17.99;54.73;101314.97;4186485;28;20023;-59
2023/06/15 05:03:23;;;;;;;;;;;;;;;18.04;54.80;101319.81;4203682;28;20016;-63
2023/06/15 05:05:25;;;;;;;;;;;;;;;18.07;54.60;101313.91;4203649;28;20027;-64
2023/06/15 05:07:27;;;;;;;;;;;;;;;18.09;54.52;101316.44;4185988;28;20028;-62
2023/06/15 05:09:29;;;;;;;;;;;;;;;18.11;54.77;101314.31;4187588;28;20008;-64
2023/06/15 05:11:32;;;;;;;;;;;;;;;18.13;54.50;101313.03;4187681;28;20008;-63
2023/06/15 05:13:34;;;;;;;;;;;;;;;18.18;54.83;101320.59;4188090;28;19933;-62
2023/06/15 05:15:37;;;;;;;;;;;;;;;18.22;54.51;101323.75;4185076;28;20031;-63
2023/06/15 05:17:41;;;;;;;;;;;;;;;18.26;54.57;101325.84;4185996;28;20024;-61
2023/06/15 05:19:44;;;;;;;;;;;;;;;18.30;54.36;101318.06;4184887;28;20020;-63
2023/06/15 05:21:47;;;;;;;;;;;;;;;18.34;54.16;101328.34;4185203;28;20027;-64
2023/06/15 05:23:49;;;;;;;;;;;;;;;18.36;54.27;101331.72;4185758;28;20015;-63
2023/06/15 05:25:51;;;;;;;;;;;;;;;18.37;54.51;101329.84;4185342;28;20019;-62
2023/06/15 05:27:54;;;;;;;;;;;;;;;18.36;54.65;101328.97;4186650;28;20023;-61
2023/06/15 05:29:57;;;;;;;;;;;;;;;18.38;54.75;101326.03;4184563;28;20004;-62
2023/06/15 05:32:00;;;;;;;;;;;;;;;18.40;54.90;101329.41;4188049;28;20397;-60
2023/06/15 05:34:05;;;;;;;;;;;;;;;18.43;54.69;101328.13;4203556;28;19954;-62
2023/06/15 05:36:09;;;;;;;;;;;;;;;18.46;54.54;101333.16;4202129;28;20014;-61
2023/06/15 05:38:13;;;;;;;;;;;;;;;18.48;54.64;101334.63;4202851;28;20054;-61
2023/06/15 05:40:18;;;;;;;;;;;;;;;18.48;54.37;101334.63;4203274;28;20348;-62
2023/06/15 05:42:20;;;;;;;;;;;;;;;18.52;54.28;101333.13;4201048;28;20015;-62
2023/06/15 05:44:25;;;;;;;;;;;;;;;18.56;54.38;101333.56;4201962;28;20019;-59
2023/06/15 05:46:29;;;;;;;;;;;;;;;18.57;54.11;101340.69;4202846;28;20007;-64
2023/06/15 05:48:31;;;;;;;;;;;;;;;18.60;54.40;101342.16;4220184;27;20014;-62
2023/06/15 05:50:37;;;;;;;;;;;;;;;18.62;54.15;101337.31;4185893;28;20023;-61
2023/06/15 05:52:39;;;;;;;;;;;;;;;18.65;54.03;101334.13;4186662;28;20007;-60
2023/06/15 05:54:42;;;;;;;;;;;;;;;18.68;53.87;101337.31;4219453;27;19928;-62
2023/06/15 05:56:44;;;;;;;;;;;;;;;18.70;54.03;101339.81;4169732;28;20031;-63
2023/06/15 05:58:46;;;;;;;;;;;;;;;18.70;54.16;101343.38;4186155;28;20406;-60
2023/06/15 06:00:48;;;;;;;;;;;;;;;18.70;54.39;101345.28;4187101;28;20011;-64
2023/06/15 06:02:51;;;;;;;;;;;;;;;18.70;54.53;101343.38;4185517;28;20015;-62
2023/06/15 06:05:02;;;;;;;;;;;;;;;18.69;54.41;101347.16;4186606;28;20026;-63
2023/06/15 06:07:06;;;;;;;;;;;;;;;18.66;54.51;101339.41;4219262;28;20844;-60
2023/06/15 06:09:10;;;;;;;;;;;;;;;18.65;54.84;101356.03;4218461;28;20015;-63
2023/06/15 06:11:12;;;;;;;;;;;;;;;18.64;54.46;101341.50;4186184;28;20019;-62
2023/06/15 06:13:19;;;;;;;;;;;;;;;18.63;54.73;101345.28;4186177;28;20063;-63
2023/06/15 06:15:21;;;;;;;;;;;;;;;18.62;54.95;101342.78;4185956;28;19924;-59
2023/06/15 06:17:23;;;;;;;;;;;;;;;18.62;54.72;101350.97;4186158;28;20031;-62
2023/06/15 06:19:26;;;;;;;;;;;;;;;18.61;54.71;101358.38;4185701;28;20408;-62
2023/06/15 06:21:31;;;;;;;;;;;;;;;18.62;55.02;101356.47;4202518;28;20054;-63
2023/06/15 06:23:36;;;;;;;;;;;;;;;18.63;55.16;101349.94;4187514;28;20035;-63
2023/06/15 06:25:40;;;;;;;;;;;;;;;18.64;55.33;101355.19;4185555;28;20012;-60
2023/06/15 06:27:44;;;;;;;;;;;;;;;18.66;55.44;101354.97;4186730;28;20035;-61
2023/06/15 06:29:46;;;;;;;;;;;;;;;18.66;55.16;101350.34;4187001;28;20027;-62
2023/06/15 06:31:48;;;;;;;;;;;;;;;18.67;55.05;101338.34;4187396;28;20047;-62
2023/06/15 06:33:49;;;;;;;;;;;;;;;18.68;55.11;101341.91;4186750;28;20037;-62
2023/06/15 06:35:52;;;;;;;;;;;;;;;18.71;55.06;101338.75;4186914;28;20387;-63
2023/06/15 06:37:53;;;;;;;;;;;;;;;18.73;54.92;101340.22;4187388;28;20031;-61
2023/06/15 06:39:57;;;;;;;;;;;;;;;18.77;55.16;101339.78;4217161;28;20010;-62
2023/06/15 06:41:59;;;;;;;;;;;;;;;18.78;54.97;101349.66;4183975;28;20039;-63
2023/06/15 06:44:11;;;;;;;;;;;;;;;18.80;54.84;101348.41;4184950;28;20055;-62
2023/06/15 06:46:14;;;;;;;;;;;;;;;18.84;54.74;101352.41;4185385;28;20028;-63
2023/06/15 06:48:16;;;;;;;;;;;;;;;18.88;54.53;101347.34;4185225;28;20054;-62
2023/06/15 06:50:18;;;;;;;;;;;;;;;18.90;54.39;101348.81;4185365;28;20028;-60
2023/06/15 06:52:20;;;;;;;;;;;;;;;18.90;54.29;101351.56;4186732;28;20372;-63
2023/06/15 06:54:22;;;;;;;;;;;;;;;18.92;54.50;101348.59;4185362;28;20015;-62
2023/06/15 06:56:26;;;;;;;;;;;;;;;18.95;54.36;101347.31;4186234;28;19928;-63
2023/06/15 06:58:28;;;;;;;;;;;;;;;18.98;54.34;101341.41;4185587;28;20016;-63
2023/06/15 07:00:30;;;;;;;;;;;;;;;19.01;53.88;101343.69;4185495;28;20011;-63
2023/06/15 07:02:33;;;;;;;;;;;;;;;19.03;53.67;101347.91;4186340;28;20027;-63
2023/06/15 07:04:35;;;;;;;;;;;;;;;19.05;53.27;101340.31;4186109;28;20023;-62
2023/06/15 07:06:36;;;;;;;;;;;;;;;19.08;53.30;101339.03;4185814;28;20015;-63
2023/06/15 07:08:38;;;;;;;;;;;;;;;19.13;53.26;101332.91;4186588;28;20015;-63
2023/06/15 07:10:40;;;;;;;;;;;;;;;19.17;53.14;101336.88;4184994;28;20016;-63
2023/06/15 07:12:44;;;;;;;;;;;;;;;19.19;53.02;101334.75;4186019;28;20355;-62
2023/06/15 07:14:46;;;;;;;;;;;;;;;19.21;52.97;101338.13;4185426;28;20019;-64
2023/06/15 07:16:48;;;;;;;;;;;;;;;19.24;53.17;101334.94;4186294;28;20031;-63
2023/06/15 07:18:50;;;;;;;;;;;;;;;19.27;53.11;101332.59;4184968;28;20558;-63
2023/06/15 07:20:54;;;;;;;;;;;;;;;19.34;53.01;101338.03;4186237;28;20016;-63
2023/06/15 07:22:56;;;;;;;;;;;;;;;19.40;53.18;101330.81;4217782;28;20019;-63
2023/06/15 07:24:58;;;;;;;;;;;;;;;19.46;53.03;101329.94;4168269;28;20024;-62
2023/06/15 07:27:00;;;;;;;;;;;;;;;19.51;52.88;101330.09;4185966;28;20016;-63
2023/06/15 07:29:03;;;;;;;;;;;;;;;19.54;52.73;101329.66;4185717;28;20039;-62
2023/06/15 07:31:06;;;;;;;;;;;;;;;19.58;52.78;101322.69;4186424;28;20040;-60
2023/06/15 07:33:08;;;;;;;;;;;;;;;19.62;52.49;101334.03;4185904;28;20039;-61
2023/06/15 07:35:11;;;;;;;;;;;;;;;19.67;52.68;101330.63;4185473;28;20423;-62
2023/06/15 07:37:13;;;;;;;;;;;;;;;19.69;52.96;101334.00;4186160;28;20387;-63
2023/06/15 07:39:15;;;;;;;;;;;;;;;19.73;52.32;101327.00;4186047;28;20011;-62
2023/06/15 07:41:17;;;;;;;;;;;;;;;19.78;52.33;101333.53;4185744;28;20028;-63
2023/06/15 07:43:21;;;;;;;;;;;;;;;19.84;52.09;101328.19;4185322;28;20094;-63
2023/06/15 07:45:24;;;;;;;;;;;;;;;19.86;52.13;101324.19;4185584;28;20016;-64
2023/06/15 07:47:27;;;;;;;;;;;;;;;19.89;51.87;101334.69;4185688;28;20019;-61
2023/06/15 07:49:29;;;;;;;;;;;;;;;19.92;51.97;101323.28;4185506;28;20020;-64
2023/06/15 07:51:31;;;;;;;;;;;;;;;19.97;52.06;101325.34;4185516;28;20466;-63
2023/06/15 07:53:33;;;;;;;;;;;;;;;19.99;51.94;101325.94;4186367;28;20019;-64
2023/06/15 07:55:35;;;;;;;;;;;;;;;20.03;51.67;101329.06;4185636;28;20043;-64
2023/06/15 07:57:37;;;;;;;;;;;;;;;20.06;51.96;101320.41;4185638;28;20019;-63
2023/06/15 07:59:39;;;;;;;;;;;;;;;20.11;51.85;101320.53;4186625;28;20749;-63
2023/06/15 08:01:42;;;;;;;;;;;;;;;20.14;51.80;101323.69;4189362;28;20012;-61
2023/06/15 08:03:44;;;;;;;;;;;;;;;20.18;51.17;101315.84;4188911;28;20477;-63
2023/06/15 08:05:46;;;;;;;;;;;;;;;20.23;50.57;101317.91;4189126;28;20003;-62
2023/06/15 08:07:48;;;;;;;;;;;;;;;20.27;50.45;101313.66;4189537;28;20481;-61
2023/06/15 08:09:50;;;;;;;;;;;;;;;20.30;49.75;101322.25;4189140;28;20383;-64
2023/06/15 08:11:52;;;;;;;;;;;;;;;20.35;50.10;101318.84;4188587;28;20019;-64
2023/06/15 08:13:54;;;;;;;;;;;;;;;20.43;49.71;101317.69;4188196;28;20027;-62
2023/06/15 08:15:57;;;;;;;;;;;;;;;20.45;49.75;101323.78;4189075;28;20036;-63
2023/06/15 08:18:00;;;;;;;;;;;;;;;20.47;49.30;101319.75;4188688;28;20015;-63
2023/06/15 08:20:05;;;;;;;;;;;;;;;20.51;49.21;101325.59;4188529;28;20027;-61
2023/06/15 08:22:07;;;;;;;;;;;;;;;20.53;48.74;101316.09;4187105;28;20369;-61
2023/06/15 08:24:09;;;;;;;;;;;;;;;20.57;48.99;101319.22;4188631;28;20020;-63
2023/06/15 08:26:11;;;;;;;;;;;;;;;20.61;48.51;101325.91;4184403;28;20019;-63
2023/06/15 08:28:13;;;;;;;;;;;;;;;20.64;48.17;101310.88;4189144;28;20031;-63
2023/06/15 08:30:15;;;;;;;;;;;;;;;20.67;47.87;101316.81;4187662;28;20019;-64
2023/06/15 08:32:17;;;;;;;;;;;;;;;20.70;47.81;101316.34;4188482;28;20023;-63
2023/06/15 08:34:21;;;;;;;;;;;;;;;20.71;48.24;101317.16;4220478;28;20011;-59
2023/06/15 08:36:23;;;;;;;;;;;;;;;20.74;48.36;101321.38;4189042;28;20020;-63
2023/06/15 08:38:25;;;;;;;;;;;;;;;20.77;47.67;101313.50;4189042;28;20030;-61
2023/06/15 08:40:27;;;;;;;;;;;;;;;20.78;47.70;101317.91;4188330;28;20015;-61
2023/06/15 08:42:29;;;;;;;;;;;;;;;20.79;47.51;101318.75;4189035;28;20015;-61
2023/06/15 08:44:31;;;;;;;;;;;;;;;20.80;47.60;101315.78;4188420;28;19995;-61
2023/06/15 08:46:33;;;;;;;;;;;;;;;20.83;47.46;101315.31;4188430;28;20023;-63
2023/06/15 08:48:35;;;;;;;;;;;;;;;20.86;47.30;101316.75;4188657;28;20015;-62
2023/06/15 08:50:39;;;;;;;;;;;;;;;20.88;47.11;101315.47;4187937;28;20019;-63
2023/06/15 08:52:41;;;;;;;;;;;;;;;20.91;47.03;101314.16;4188232;28;20029;-64
2023/06/15 08:54:43;;;;;;;;;;;;;;;20.94;47.41;101312.84;4188647;28;20007;-63
2023/06/15 08:56:45;;;;;;;;;;;;;;;20.97;46.93;101309.63;4189144;28;20508;-63
2023/06/15 08:58:50;;;;;;;;;;;;;;;21.00;46.98;101306.44;4187958;28;19925;-63
2023/06/15 09:00:51;;;;;;;;;;;;;;;21.03;46.63;101309.56;4185033;28;20015;-63
2023/06/15 09:02:56;;;;;;;;;;;;;;;21.08;47.21;101303.34;4188405;28;20019;-62
2023/06/15 09:04:58;;;;;;;;;;;;;;;21.12;46.63;101306.47;4188425;28;20019;-61
2023/06/15 09:07:01;;;;;;;;;;;;;;;21.14;46.56;101299.66;4188273;28;20023;-61
2023/06/15 09:09:04;;;;;;;;;;;;;;;21.21;46.46;101310.56;4187828;28;20095;-63
2023/06/15 09:11:07;;;;;;;;;;;;;;;21.23;46.37;101298.25;4219274;27;20046;-61
2023/06/15 09:13:14;;;;;;;;;;;;;;;21.27;46.19;101298.66;4187534;28;20023;-64
2023/06/15 09:15:20;;;;;;;;;;;;;;;21.22;46.34;101296.59;4188024;28;20011;-62
2023/06/15 09:17:27;;;;;;;;;;;;;;;21.21;46.32;101305.91;4188387;28;20086;-61
2023/06/15 09:19:35;;;;;;;;;;;;;;;21.23;46.32;101295.50;4188410;28;19974;-62
2023/06/15 09:21:38;;;;;;;;;;;;;;;21.23;46.21;101294.69;4188381;28;20035;-62
2023/06/15 09:23:44;;;;;;;;;;;;;;;21.26;46.34;101299.72;4187391;28;20024;-64
2023/06/15 09:25:51;;;;;;;;;;;;;;;21.28;46.16;101294.81;4187457;28;20535;-64
2023/06/15 09:27:54;;;;;;;;;;;;;;;21.27;46.33;101295.91;4188183;28;20011;-61
2023/06/15 09:30:06;;;;;;;;;;;;;;;21.28;46.32;101292.06;4187196;28;20011;-63
2023/06/15 09:32:08;;;;;;;;;;;;;;;21.28;46.12;101289.31;4188315;28;20027;-64
2023/06/15 09:34:11;;;;;;;;;;;;;;;21.34;46.13;101301.28;4187817;28;20019;-64
2023/06/15 09:36:13;;;;;;;;;;;;;;;21.35;46.00;101286.50;4187954;28;20016;-62
2023/06/15 09:38:15;;;;;;;;;;;;;;;21.36;45.83;101285.41;4187316;28;20020;-61
2023/06/15 09:40:19;;;;;;;;;;;;;;;21.38;45.70;101289.59;4187305;28;20613;-63
2023/06/15 09:42:24;;;;;;;;;;;;;;;21.39;45.69;101283.03;4219033;28;20086;-63
2023/06/15 09:44:27;;;;;;;;;;;;;;;21.42;45.99;101285.28;4186885;28;20012;-63
2023/06/15 09:46:29;;;;;;;;;;;;;;;21.44;45.74;101274.06;4187513;28;20027;-60
2023/06/15 09:48:31;;;;;;;;;;;;;;;21.45;45.79;101281.22;4187491;28;20027;-62
2023/06/15 09:50:33;;;;;;;;;;;;;;;21.46;45.52;101277.41;4187092;28;20016;-62
2023/06/15 09:52:36;;;;;;;;;;;;;;;21.49;45.26;101279.72;4187960;28;20374;-62
2023/06/15 09:54:38;;;;;;;;;;;;;;;21.47;45.70;101281.81;4187259;28;20470;-61
2023/06/15 09:56:41;;;;;;;;;;;;;;;21.50;45.33;101272.31;4187520;28;20363;-60
2023/06/15 09:58:43;;;;;;;;;;;;;;;21.54;45.19;101276.28;4187216;28;20024;-61
2023/06/15 10:00:45;;;;;;;;;;;;;;;21.57;45.03;101279.38;4219338;28;20450;-63
2023/06/15 10:02:47;;;;;;;;;;;;;;;21.58;45.21;101274.69;4170882;28;20518;-63
2023/06/15 10:04:49;;;;;;;;;;;;;;;21.59;45.15;101273.63;4187140;28;20059;-63
2023/06/15 10:06:52;;;;;;;;;;;;;;;21.60;45.18;101276.16;4187511;28;20019;-62
2023/06/15 10:08:57;;;;;;;;;;;;;;;21.61;45.06;101274.22;4186894;28;20011;-63
2023/06/15 10:10:59;;;;;;;;;;;;;;;21.61;45.04;101282.47;4187412;28;20486;-62
2023/06/15 10:13:02;;;;;;;;;;;;;;;21.62;45.01;101283.34;4187281;28;20028;-62
2023/06/15 10:15:04;;;;;;;;;;;;;;;21.64;44.97;101286.66;4186896;28;20023;-61
2023/06/15 10:17:07;;;;;;;;;;;;;;;21.64;44.81;101286.66;4187155;28;20023;-62
2023/06/15 10:19:11;;;;;;;;;;;;;;;21.63;45.09;101298.72;4163796;28;20024;-63
2023/06/15 10:21:14;;;;;;;;;;;;;;;21.63;44.90;101287.72;4187567;28;19929;-63
2023/06/15 10:23:16;;;;;;;;;;;;;;;21.63;45.18;101293.22;4217792;28;20173;-62
2023/06/15 10:25:44;;;;;;;;;;;;;;;21.63;45.18;101296.84;4186390;28;20012;-63
2023/06/15 10:27:46;;;;;;;;;;;;;;;21.64;45.00;101293.00;4187196;28;20016;-63
2023/06/15 10:29:56;;;;;;;;;;;;;;;21.63;44.96;101295.97;4186254;28;20062;-64
2023/06/15 10:32:00;;;;;;;;;;;;;;;21.63;45.01;101299.59;4186830;28;20045;-62